Latest Weather Observations for Gympie

IDQ60901

Issued at 10:11 pm EST Tuesday 28 February 2017 (issued every 10 minutes, with the page automatically refreshed every 10 minutes)

About weather observations | Map of Brisbane area stations | Latest observations for Brisbane area | Other Formats
Station Details ID: 040093 Name: GYMPIE Lat: -26.18 Lon: 152.64 Height: 64.5 m
Data from the previous 72 hours. | See also: Recent months at Gympie
Date/Time
EST
Temp
°C
App
Temp
°C
Dew
Point
°C
Rel
Hum
%
Delta-T
°C
Wind Press
QNH
hPa
Press
MSL
hPa
Rain since
9am
mm
Dir  Spd
km/h
Gust
km/h
Spd
kts
Gust
kts
28/10:00pm 20.7 24.8 20.7 100 0.0 CALM 0 0 0 0 1016.9 1016.6 5.8
28/09:30pm 20.6 24.6 20.6 100 0.0 CALM 0 0 0 0 1017.1 1016.8 5.8
28/09:00pm 20.6 24.6 20.6 100 0.0 CALM 0 2 0 1 1017.0 1016.7 5.8
28/08:30pm 20.6 24.6 20.6 100 0.0 CALM 0 0 0 0 1016.8 1016.5 5.8
28/08:00pm 20.5 23.7 20.5 100 0.0 WSW 4 6 2 3 1016.7 1016.4 5.8
28/07:30pm 21.0 24.4 21.0 100 0.0 N 4 4 2 2 1016.1 1015.8 5.8
28/07:00pm 20.4 23.6 20.4 100 0.0 S 4 9 2 5 1015.6 1015.3 5.8
28/06:30pm 21.9 24.5 21.9 100 0.0 E 11 19 6 10 1015.0 1014.7 5.6
28/06:00pm 23.2 23.8 18.5 75 3.0 WNW 13 28 7 15 1015.6 1015.3 0.0
28/05:30pm 24.3 24.1 17.5 66 4.2 SSE 15 24 8 13 1014.7 1014.4 0.0
28/05:00pm 27.1 28.6 19.7 64 4.8 SE 11 22 6 12 1014.4 1014.1 0.0
28/04:30pm 29.0 28.9 19.6 57 6.1 ESE 19 33 10 18 1013.7 1013.3 0.0
28/04:00pm 29.8 30.3 20.1 56 6.4 ESE 17 30 9 16 1013.1 1012.7 0.0
28/03:30pm 30.4 31.3 20.0 53 6.9 E 15 28 8 15 1013.1 1012.7 0.0
28/03:00pm 31.1 32.1 19.4 49 7.7 ESE 13 26 7 14 1013.2 1012.8 0.0
28/02:30pm 32.3 33.9 19.2 46 8.6 SE 9 15 5 8 1013.2 1012.8 0.0
28/02:00pm 32.4 34.2 20.3 48 8.1 ESE 11 26 6 14 1013.4 1013.0 0.0
28/01:30pm 30.1 31.1 19.5 53 6.9 E 13 24 7 13 1013.8 1013.4 0.0
28/01:00pm 31.1 32.1 17.8 45 8.5 SE 9 17 5 9 1014.1 1013.7 0.0
28/12:30pm 32.2 33.3 18.0 42 9.2 SSE 9 19 5 10 1014.3 1013.9 0.0
28/12:00pm 30.2 31.7 18.0 48 7.8 E 7 13 4 7 1014.7 1014.4 0.0
28/11:30am 29.9 31.7 18.7 51 7.2 ESE 7 17 4 9 1015.2 1014.9 0.0
28/11:00am 29.3 31.5 19.3 55 6.5 SE 6 15 3 8 1015.5 1015.2 0.0
28/10:30am 28.6 30.9 19.8 59 5.8 ESE 7 15 4 8 1015.9 1015.6 0.0
28/10:00am 27.9 30.6 20.7 65 4.8 SSW 7 11 4 6 1016.2 1015.9 0.0
28/09:30am 27.1 29.2 20.9 69 4.1 SSE 11 20 6 11 1016.5 1016.2 0.0
28/09:00am 25.5 28.0 21.8 80 2.5 SSE 11 20 6 11 1016.6 1016.3 0.8
28/08:30am 24.8 27.3 21.7 83 2.1 SSE 11 19 6 10 1016.6 1016.3 0.8
28/08:00am 24.1 27.9 22.7 92 0.9 SE 7 13 4 7 1016.3 1016.0 0.8
28/07:30am 21.8 26.4 21.8 100 0.0 CALM 0 0 0 0 1016.2 1015.9 0.8
28/07:00am 19.5 23.0 19.5 100 0.0 CALM 0 0 0 0 1016.1 1015.8 0.8
28/06:30am 17.7 20.4 17.7 100 0.0 CALM 0 0 0 0 1016.1 1015.8 0.8
28/06:00am 16.7 19.0 16.7 100 0.0 CALM 0 0 0 0 1015.8 1015.5 0.8
28/05:30am 16.5 18.7 16.5 100 0.0 CALM 0 0 0 0 1015.4 1015.1 0.8
28/05:00am 17.2 19.7 17.2 100 0.0 CALM 0 0 0 0 1015.0 1014.7 0.8
28/04:30am 17.1 19.5 17.1 100 0.0 CALM 0 0 0 0 1015.0 1014.7 0.8
28/04:00am 17.5 20.1 17.5 100 0.0 CALM 0 0 0 0 1015.2 1014.9 0.8
28/03:30am 17.4 20.0 17.4 100 0.0 CALM 0 0 0 0 1015.2 1014.9 0.8
28/03:00am 18.0 20.8 18.0 100 0.0 CALM 0 0 0 0 1015.3 1015.0 0.8
28/02:30am 17.9 20.7 17.9 100 0.0 CALM 0 0 0 0 1015.3 1015.0 0.8
28/02:00am 18.6 21.7 18.6 100 0.0 CALM 0 0 0 0 1015.5 1015.2 0.8
28/01:30am 19.1 22.4 19.1 100 0.0 CALM 0 0 0 0 1015.7 1015.4 0.8
28/01:00am 19.1 22.4 19.1 100 0.0 CALM 0 0 0 0 1016.2 1015.9 0.8
28/12:30am 19.4 22.8 19.4 100 0.0 CALM 0 0 0 0 1016.4 1016.1 0.8
28/12:00am 19.8 23.0 19.8 100 0.0 SSE 2 2 1 1 1016.7 1016.4 0.8
 
Date/Time
EST
Temp
°C
App
Temp
°C
Dew
Point
°C
Rel
Hum
%
Delta-T
°C
Wind Press
QNH
hPa
Press
MSL
hPa
Rain since
9am
mm
Dir  Spd
km/h
Gust
km/h
Spd
kts
Gust
kts
27/11:30pm 19.9 22.8 19.9 100 0.0 SSE 4 6 2 3 1016.9 1016.6 0.8
27/11:00pm 19.9 22.8 19.9 100 0.0 SSE 4 6 2 3 1016.9 1016.6 0.8
27/10:30pm 20.7 23.6 20.7 100 0.0 SE 6 6 3 3 1017.1 1016.8 0.8
27/10:00pm 20.9 24.3 20.9 100 0.0 SSE 4 6 2 3 1017.1 1016.8 0.8
27/09:30pm 21.0 24.4 21.0 100 0.0 SSE 4 6 2 3 1017.1 1016.8 0.8
27/09:00pm 21.6 25.0 21.6 100 0.0 S 6 9 3 5 1017.1 1016.8 0.8
27/08:30pm 21.5 25.2 21.5 100 0.0 SSE 4 6 2 3 1017.1 1016.8 0.8
27/08:00pm 22.1 25.6 21.9 99 0.1 S 6 7 3 4 1017.0 1016.7 0.8
27/07:30pm 22.5 25.8 21.8 96 0.5 SSE 7 11 4 6 1016.5 1016.2 0.8
27/07:00pm 23.1 25.7 21.2 89 1.2 SE 9 19 5 10 1016.4 1016.1 0.8
27/06:30pm 23.6 25.3 20.1 81 2.3 SE 11 19 6 10 1016.3 1016.0 0.8
27/06:00pm 24.3 26.3 20.0 77 2.8 SE 9 17 5 9 1016.0 1015.7 0.8
27/05:30pm 25.2 25.7 19.3 70 3.8 SE 15 24 8 13 1015.5 1015.2 0.8
27/05:00pm 25.3 26.8 19.0 68 4.0 SE 9 19 5 10 1015.6 1015.3 0.8
27/04:30pm 25.5 25.4 18.7 66 4.3 ESE 17 28 9 15 1015.5 1015.2 0.8
27/04:00pm 26.2 26.6 18.9 64 4.7 SE 15 30 8 16 1015.0 1014.7 0.8
27/03:30pm 26.7 26.2 18.6 61 5.2 ESE 19 32 10 17 1014.8 1014.5 0.8
27/03:00pm 26.9 26.8 18.7 60 5.3 SE 17 28 9 15 1014.6 1014.3 0.8
27/02:30pm 27.9 28.1 19.4 60 5.5 ESE 17 30 9 16 1014.7 1014.4 0.8
27/02:00pm 27.6 29.4 21.9 71 3.8 ESE 15 26 8 14 1015.3 1015.0 0.8
27/01:30pm 26.8 29.7 23.9 84 2.0 E 15 24 8 13 1015.5 1015.2 0.8
27/01:00pm 26.3 27.1 19.9 68 4.2 SE 15 32 8 17 1015.8 1015.5 0.8
27/12:30pm 29.0 30.1 19.6 57 6.1 ESE 13 22 7 12 1015.7 1015.4 0.8
27/12:00pm 28.4 29.3 19.3 57 5.9 ESE 13 20 7 11 1016.2 1015.9 0.8
27/11:30am 27.7 29.4 21.0 67 4.4 SE 13 22 7 12 1016.6 1016.3 0.8
27/11:00am 26.9 29.9 22.7 78 2.8 SSE 11 24 6 13 1016.9 1016.6 0.8
27/10:30am 24.2 28.5 24.2 100 0.0 SSE 9 20 5 11 1017.2 1016.9 0.8
27/10:00am 27.1 30.0 21.8 73 3.5 SSE 9 17 5 9 1016.9 1016.6 0.0
27/09:30am 26.8 29.4 22.0 75 3.2 SSE 11 19 6 10 1017.1 1016.8 0.0
27/09:00am 25.8 28.4 21.9 79 2.6 SSE 11 17 6 9 1017.3 1017.0 0.0
27/08:30am 25.1 26.4 21.6 81 2.3 SSE 17 30 9 16 1017.1 1016.8 0.0
27/08:00am 24.5 27.8 22.6 89 1.3 SSE 9 17 5 9 1016.7 1016.4 0.0
27/07:30am 22.0 26.0 22.0 100 0.0 SE 4 6 2 3 1016.6 1016.3 0.0
27/07:00am 20.3 23.8 20.3 100 0.0 ESE 2 4 1 2 1016.5 1016.2 0.0
27/06:30am 19.5 22.6 19.5 100 0.0 SSE 2 4 1 2 1016.0 1015.7 0.0
27/06:00am 19.4 22.5 19.4 100 0.0 SE 2 4 1 2 1015.8 1015.5 0.0
27/05:30am 19.7 22.5 19.7 100 0.0 ESE 4 6 2 3 1015.4 1015.1 0.0
27/05:00am 19.2 22.2 19.2 100 0.0 SSE 2 6 1 3 1015.3 1015.0 0.0
27/04:30am 19.7 22.1 19.7 100 0.0 SE 6 9 3 5 1015.4 1015.1 0.0
27/04:00am 19.6 22.4 19.6 100 0.0 ESE 4 6 2 3 1015.1 1014.8 0.0
27/03:30am 19.4 22.1 19.4 100 0.0 SSE 4 7 2 4 1015.0 1014.7 0.0
27/03:00am 20.2 22.7 20.2 100 0.0 SE 7 13 4 7 1015.4 1015.1 0.0
27/02:30am 21.1 23.6 21.1 100 0.0 S 9 20 5 11 1015.6 1015.3 0.0
27/02:00am 20.1 23.1 20.1 100 0.0 SE 4 6 2 3 1016.1 1015.8 0.0
27/01:30am 20.2 24.0 20.2 100 0.0 CALM 0 0 0 0 1015.9 1015.6 0.0
27/01:00am 20.5 24.5 20.5 100 0.0 CALM 0 6 0 3 1016.0 1015.7 0.0
27/12:30am 20.7 24.8 20.7 100 0.0 CALM 0 0 0 0 1015.6 1015.3 0.0
27/12:00am 21.1 25.4 21.1 100 0.0 CALM 0 0 0 0 1016.3 1016.0 0.0
 
Date/Time
EST
Temp
°C
App
Temp
°C
Dew
Point
°C
Rel
Hum
%
Delta-T
°C
Wind Press
QNH
hPa
Press
MSL
hPa
Rain since
9am
mm
Dir  Spd
km/h
Gust
km/h
Spd
kts
Gust
kts
26/11:30pm 21.5 26.0 21.5 100 0.0 CALM 0 0 0 0 1016.5 1016.2 0.0
26/11:00pm 21.8 26.3 21.6 99 0.1 CALM 0 2 0 1 1016.3 1016.0 0.0
26/10:30pm 22.4 26.4 22.1 98 0.2 SSE 4 4 2 2 1016.5 1016.2 0.0
26/10:00pm 22.4 27.3 22.4 100 0.0 CALM 0 0 0 0 1016.7 1016.4 0.0
26/09:30pm 23.1 27.8 22.6 97 0.3 ENE 2 6 1 3 1016.9 1016.6 0.0
26/09:00pm 22.8 27.3 21.6 93 0.8 CALM 0 4 0 2 1016.8 1016.5 0.0
26/08:30pm 23.6 27.0 21.7 89 1.3 SSE 6 9 3 5 1016.6 1016.3 0.0
26/08:00pm 23.9 27.4 22.2 90 1.1 SSE 7 13 4 7 1016.2 1015.9 0.0
26/07:30pm 23.8 27.5 22.2 91 1.1 SSE 6 7 3 4 1016.0 1015.7 0.0
26/07:00pm 24.8 27.1 21.3 81 2.3 SE 11 22 6 12 1015.6 1015.3 0.0
26/06:30pm 25.4 26.8 19.5 70 3.8 ESE 11 22 6 12 1014.9 1014.6 0.0
26/06:00pm 25.9 26.5 18.6 64 4.7 SE 13 26 7 14 1014.7 1014.4 0.0
26/05:30pm 26.6 27.4 19.0 63 4.9 SE 13 24 7 13 1014.2 1013.8 0.0
26/05:00pm 26.1 27.1 20.2 70 3.9 SE 15 28 8 15 1014.2 1013.8 0.0
26/04:30pm 26.1 26.2 19.2 65 4.4 SE 17 30 9 16 1014.2 1013.8 0.0
26/04:00pm 26.9 28.1 20.0 66 4.5 SE 13 24 7 13 1014.1 1013.7 0.0
26/03:30pm 27.7 27.8 20.3 64 4.9 SE 20 35 11 19 1013.8 1013.4 0.0
26/03:00pm 28.1 27.6 19.9 61 5.4 ESE 22 35 12 19 1013.7 1013.3 0.0
26/02:30pm 30.5 31.0 19.2 51 7.4 SE 15 30 8 16 1013.4 1013.0 0.0
26/02:00pm 29.9 30.0 18.3 49 7.5 SE 15 26 8 14 1013.6 1013.2 0.0
26/01:30pm 31.1 32.5 21.0 55 6.8 SE 15 28 8 15 1013.9 1013.5 0.0
26/01:00pm 29.9 29.9 19.0 52 7.1 SE 17 28 9 15 1014.1 1013.7 0.0
26/12:30pm 30.4 31.4 19.4 51 7.2 SE 13 26 7 14 1014.2 1013.8 0.0
26/12:00pm 30.6 31.6 20.2 53 6.9 E 15 30 8 16 1014.3 1013.9 0.0
26/11:30am 29.5 29.3 18.6 52 7.0 ESE 17 30 9 16 1014.6 1014.3 0.0
26/11:00am 29.6 30.1 19.3 54 6.7 SE 15 24 8 13 1014.9 1014.6 0.0
26/10:30am 29.6 30.7 19.6 55 6.5 ESE 13 28 7 15 1015.2 1014.9 0.0
26/10:00am 29.1 30.6 20.5 59 5.7 SE 13 24 7 13 1015.4 1015.1 0.0
26/09:30am 28.8 30.7 21.3 64 5.0 SE 13 26 7 14 1015.5 1015.2 0.0
26/09:00am 28.7 32.3 23.1 71 3.8 SSE 9 20 5 11 1015.3 1015.0 0.0
26/08:30am 26.5 30.1 23.0 81 2.4 SSE 9 13 5 7 1015.4 1015.1 0.0
26/08:00am 25.2 28.6 22.7 86 1.7 S 9 17 5 9 1015.3 1015.0 0.0
26/07:30am 24.3 27.8 22.9 92 0.9 SSE 9 17 5 9 1015.0 1014.7 0.0
26/07:00am 22.5 26.4 22.5 100 0.0 SSE 6 9 3 5 1015.0 1014.7 0.0
26/06:30am 20.4 24.3 20.4 100 0.0 CALM 0 4 0 2 1014.8 1014.5 0.0
26/06:00am 19.9 23.6 19.9 100 0.0 CALM 0 2 0 1 1014.6 1014.3 0.0
26/05:30am 19.2 22.5 19.2 100 0.0 CALM 0 0 0 0 1014.1 1013.7 0.0
26/05:00am 20.6 23.8 20.6 100 0.0 ESE 4 6 2 3 1014.0 1013.6 0.0
26/04:30am 19.8 23.4 19.8 100 0.0 CALM 0 4 0 2 1013.7 1013.3 0.0
26/04:00am 20.2 24.0 20.2 100 0.0 CALM 0 0 0 0 1013.6 1013.2 0.0
26/03:30am 20.4 23.6 20.4 100 0.0 SE 4 6 2 3 1013.5 1013.1 0.0
26/03:00am 20.6 23.8 20.6 100 0.0 SSE 4 7 2 4 1013.5 1013.1 0.0
26/02:30am 20.8 23.8 20.8 100 0.0 S 6 9 3 5 1013.5 1013.1 0.0
26/02:00am 21.1 24.6 21.1 100 0.0 SSW 4 6 2 3 1013.5 1013.1 0.0
26/01:30am 21.3 24.5 21.3 100 0.0 S 6 9 3 5 1013.9 1013.5 0.0
26/01:00am 20.5 23.3 20.5 100 0.0 S 6 7 3 4 1014.2 1013.8 0.0
26/12:30am 20.7 24.4 20.7 100 0.0 SSE 2 6 1 3 1014.4 1014.1 0.0
26/12:00am 20.9 24.3 20.9 100 0.0 SSE 4 6 2 3 1014.8 1014.5 0.0
 
Date/Time
EST
Temp
°C
App
Temp
°C
Dew
Point
°C
Rel
Hum
%
Delta-T
°C
Wind Press
QNH
hPa
Press
MSL
hPa
Rain since
9am
mm
Dir  Spd
km/h
Gust
km/h
Spd
kts
Gust
kts
25/11:30pm 21.0 24.8 21.0 100 0.0 SSE 2 4 1 2 1014.9 1014.6 0.0
25/11:00pm 20.8 24.1 20.8 100 0.0 S 4 6 2 3 1015.6 1015.3 0.0
25/10:30pm 21.3 24.9 21.3 100 0.0 SSW 4 6 2 3 1015.8 1015.5 0.0

Latest Capital City Observations: Canberra | Sydney | Melbourne | Brisbane | Adelaide | Perth | Hobart | Darwin

Other Formats:

Comma delimited format used in spreadsheet applications
http://www.bom.gov.au/fwo/IDQ60901/IDQ60901.94566.axf

JavaScript Object Notation format (JSON) in row-major order
http://www.bom.gov.au/fwo/IDQ60901/IDQ60901.94566.json